sensor_id;sensor_type;location;lat;lon;timestamp;P1;durP1;ratioP1;P2;durP2;ratioP2
25752;SDS011;13600;50.816;4.416;2023-01-23T00:00:38;58.22;;;28.95;;
25752;SDS011;13600;50.816;4.416;2023-01-23T00:03:05;52.53;;;28.75;;
25752;SDS011;13600;50.816;4.416;2023-01-23T00:05:31;58.58;;;28.35;;
25752;SDS011;13600;50.816;4.416;2023-01-23T00:07:56;56.97;;;29.25;;
25752;SDS011;13600;50.816;4.416;2023-01-23T00:10:22;56.42;;;28.67;;
25752;SDS011;13600;50.816;4.416;2023-01-23T00:12:48;56.63;;;27.85;;
25752;SDS011;13600;50.816;4.416;2023-01-23T00:15:14;56.65;;;29.83;;
25752;SDS011;13600;50.816;4.416;2023-01-23T00:17:40;58.03;;;30.02;;
25752;SDS011;13600;50.816;4.416;2023-01-23T00:20:09;59.45;;;29.65;;
25752;SDS011;13600;50.816;4.416;2023-01-23T00:22:36;56.75;;;29.70;;
25752;SDS011;13600;50.816;4.416;2023-01-23T00:25:02;59.35;;;29.90;;
25752;SDS011;13600;50.816;4.416;2023-01-23T00:27:29;58.15;;;28.35;;
25752;SDS011;13600;50.816;4.416;2023-01-23T00:29:54;62.88;;;29.60;;
25752;SDS011;13600;50.816;4.416;2023-01-23T00:32:20;61.72;;;31.15;;
25752;SDS011;13600;50.816;4.416;2023-01-23T00:34:46;68.60;;;31.70;;
25752;SDS011;13600;50.816;4.416;2023-01-23T00:37:12;66.35;;;32.13;;
25752;SDS011;13600;50.816;4.416;2023-01-23T00:39:38;64.95;;;31.27;;
25752;SDS011;13600;50.816;4.416;2023-01-23T00:42:04;66.53;;;32.58;;
25752;SDS011;13600;50.816;4.416;2023-01-23T00:44:30;63.17;;;32.15;;
25752;SDS011;13600;50.816;4.416;2023-01-23T00:46:56;62.22;;;31.65;;
25752;SDS011;13600;50.816;4.416;2023-01-23T00:49:23;67.93;;;33.80;;
25752;SDS011;13600;50.816;4.416;2023-01-23T00:51:49;68.80;;;34.50;;
25752;SDS011;13600;50.816;4.416;2023-01-23T00:54:15;67.80;;;33.42;;
25752;SDS011;13600;50.816;4.416;2023-01-23T00:56:41;66.72;;;32.45;;
25752;SDS011;13600;50.816;4.416;2023-01-23T00:59:07;70.40;;;33.10;;
25752;SDS011;13600;50.816;4.416;2023-01-23T01:01:33;70.18;;;33.92;;
25752;SDS011;13600;50.816;4.416;2023-01-23T01:03:59;71.80;;;33.53;;
25752;SDS011;13600;50.816;4.416;2023-01-23T01:06:25;71.47;;;34.42;;
25752;SDS011;13600;50.816;4.416;2023-01-23T01:08:51;69.53;;;33.08;;
25752;SDS011;13600;50.816;4.416;2023-01-23T01:11:16;75.03;;;34.28;;
25752;SDS011;13600;50.816;4.416;2023-01-23T01:13:43;73.60;;;35.08;;
25752;SDS011;13600;50.816;4.416;2023-01-23T01:16:09;72.50;;;34.10;;
25752;SDS011;13600;50.816;4.416;2023-01-23T01:18:36;75.70;;;33.67;;
25752;SDS011;13600;50.816;4.416;2023-01-23T01:21:06;76.85;;;36.70;;
25752;SDS011;13600;50.816;4.416;2023-01-23T01:23:32;76.75;;;36.97;;
25752;SDS011;13600;50.816;4.416;2023-01-23T01:25:58;92.65;;;38.72;;
25752;SDS011;13600;50.816;4.416;2023-01-23T01:28:25;86.03;;;37.47;;
25752;SDS011;13600;50.816;4.416;2023-01-23T01:30:54;80.65;;;37.00;;
25752;SDS011;13600;50.816;4.416;2023-01-23T01:33:20;84.07;;;38.95;;
25752;SDS011;13600;50.816;4.416;2023-01-23T01:35:48;85.68;;;37.80;;
25752;SDS011;13600;50.816;4.416;2023-01-23T01:38:14;84.43;;;37.58;;
25752;SDS011;13600;50.816;4.416;2023-01-23T01:40:39;85.07;;;38.50;;
25752;SDS011;13600;50.816;4.416;2023-01-23T01:43:07;86.30;;;37.58;;
25752;SDS011;13600;50.816;4.416;2023-01-23T01:45:59;82.30;;;36.20;;
25752;SDS011;13600;50.816;4.416;2023-01-23T01:53:56;90.63;;;38.78;;
25752;SDS011;13600;50.816;4.416;2023-01-23T01:56:38;82.47;;;37.03;;
25752;SDS011;13600;50.816;4.416;2023-01-23T01:59:10;92.57;;;39.22;;
25752;SDS011;13600;50.816;4.416;2023-01-23T02:01:37;91.25;;;38.40;;
25752;SDS011;13600;50.816;4.416;2023-01-23T02:04:04;89.18;;;38.92;;
25752;SDS011;13600;50.816;4.416;2023-01-23T02:06:30;97.55;;;38.58;;
25752;SDS011;13600;50.816;4.416;2023-01-23T02:09:04;94.60;;;38.72;;
25752;SDS011;13600;50.816;4.416;2023-01-23T02:11:34;94.03;;;39.08;;
25752;SDS011;13600;50.816;4.416;2023-01-23T02:14:01;97.60;;;41.42;;
25752;SDS011;13600;50.816;4.416;2023-01-23T02:16:28;94.85;;;40.20;;
25752;SDS011;13600;50.816;4.416;2023-01-23T02:19:00;100.15;;;40.38;;
25752;SDS011;13600;50.816;4.416;2023-01-23T02:21:32;99.78;;;39.88;;
25752;SDS011;13600;50.816;4.416;2023-01-23T02:24:34;91.88;;;39.50;;
25752;SDS011;13600;50.816;4.416;2023-01-23T02:26:58;97.72;;;39.28;;
25752;SDS011;13600;50.816;4.416;2023-01-23T02:29:24;95.47;;;39.38;;
25752;SDS011;13600;50.816;4.416;2023-01-23T02:31:50;103.82;;;39.20;;
25752;SDS011;13600;50.816;4.416;2023-01-23T02:34:17;95.32;;;39.33;;
25752;SDS011;13600;50.816;4.416;2023-01-23T02:36:44;100.05;;;41.60;;
25752;SDS011;13600;50.816;4.416;2023-01-23T02:39:16;90.65;;;40.45;;
25752;SDS011;13600;50.816;4.416;2023-01-23T02:41:47;98.40;;;40.10;;
25752;SDS011;13600;50.816;4.416;2023-01-23T02:44:21;106.20;;;41.72;;
25752;SDS011;13600;50.816;4.416;2023-01-23T02:46:53;103.95;;;41.63;;
25752;SDS011;13600;50.816;4.416;2023-01-23T02:49:19;103.40;;;41.95;;
25752;SDS011;13600;50.816;4.416;2023-01-23T02:51:46;105.13;;;41.53;;
25752;SDS011;13600;50.816;4.416;2023-01-23T02:54:13;102.03;;;41.58;;
25752;SDS011;13600;50.816;4.416;2023-01-23T02:56:39;106.53;;;42.75;;
25752;SDS011;13600;50.816;4.416;2023-01-23T02:59:06;113.78;;;42.95;;
25752;SDS011;13600;50.816;4.416;2023-01-23T03:01:50;103.60;;;42.42;;
25752;SDS011;13600;50.816;4.416;2023-01-23T03:04:16;103.40;;;41.63;;
25752;SDS011;13600;50.816;4.416;2023-01-23T03:06:42;103.13;;;42.55;;
25752;SDS011;13600;50.816;4.416;2023-01-23T03:09:10;108.78;;;43.53;;
25752;SDS011;13600;50.816;4.416;2023-01-23T03:11:37;114.03;;;44.03;;
25752;SDS011;13600;50.816;4.416;2023-01-23T03:14:05;115.55;;;43.70;;
25752;SDS011;13600;50.816;4.416;2023-01-23T03:16:33;118.32;;;44.08;;
25752;SDS011;13600;50.816;4.416;2023-01-23T03:18:59;112.25;;;43.05;;
25752;SDS011;13600;50.816;4.416;2023-01-23T03:21:29;113.50;;;43.03;;
25752;SDS011;13600;50.816;4.416;2023-01-23T03:23:56;111.22;;;43.30;;
25752;SDS011;13600;50.816;4.416;2023-01-23T03:26:22;110.70;;;43.10;;
25752;SDS011;13600;50.816;4.416;2023-01-23T03:28:48;118.20;;;43.42;;
25752;SDS011;13600;50.816;4.416;2023-01-23T03:31:33;120.95;;;44.70;;
25752;SDS011;13600;50.816;4.416;2023-01-23T03:33:58;114.18;;;42.58;;
25752;SDS011;13600;50.816;4.416;2023-01-23T03:36:24;118.55;;;43.63;;
25752;SDS011;13600;50.816;4.416;2023-01-23T03:38:50;113.05;;;43.13;;
25752;SDS011;13600;50.816;4.416;2023-01-23T03:41:34;114.80;;;42.88;;
25752;SDS011;13600;50.816;4.416;2023-01-23T03:44:02;117.45;;;42.90;;
25752;SDS011;13600;50.816;4.416;2023-01-23T03:46:28;112.45;;;44.15;;
25752;SDS011;13600;50.816;4.416;2023-01-23T03:48:53;119.00;;;45.15;;
25752;SDS011;13600;50.816;4.416;2023-01-23T03:51:19;123.80;;;46.30;;
25752;SDS011;13600;50.816;4.416;2023-01-23T03:53:45;130.13;;;44.22;;
25752;SDS011;13600;50.816;4.416;2023-01-23T03:56:10;123.03;;;45.53;;
25752;SDS011;13600;50.816;4.416;2023-01-23T03:58:36;120.95;;;43.67;;
25752;SDS011;13600;50.816;4.416;2023-01-23T04:01:04;126.97;;;45.35;;
25752;SDS011;13600;50.816;4.416;2023-01-23T04:03:30;130.75;;;44.78;;
25752;SDS011;13600;50.816;4.416;2023-01-23T04:05:57;139.35;;;46.47;;
25752;SDS011;13600;50.816;4.416;2023-01-23T04:08:23;127.38;;;44.55;;
25752;SDS011;13600;50.816;4.416;2023-01-23T04:10:48;126.18;;;44.28;;
25752;SDS011;13600;50.816;4.416;2023-01-23T04:13:14;130.85;;;44.00;;
25752;SDS011;13600;50.816;4.416;2023-01-23T04:15:41;117.28;;;41.03;;
25752;SDS011;13600;50.816;4.416;2023-01-23T04:18:06;128.60;;;44.63;;
25752;SDS011;13600;50.816;4.416;2023-01-23T04:20:32;126.32;;;44.70;;
25752;SDS011;13600;50.816;4.416;2023-01-23T04:22:58;126.03;;;43.17;;
25752;SDS011;13600;50.816;4.416;2023-01-23T04:25:23;124.72;;;44.25;;
25752;SDS011;13600;50.816;4.416;2023-01-23T04:27:49;117.78;;;42.83;;
25752;SDS011;13600;50.816;4.416;2023-01-23T04:30:15;121.30;;;44.05;;
25752;SDS011;13600;50.816;4.416;2023-01-23T04:32:40;123.53;;;42.28;;
25752;SDS011;13600;50.816;4.416;2023-01-23T04:35:06;114.25;;;42.15;;
25752;SDS011;13600;50.816;4.416;2023-01-23T04:37:32;124.43;;;43.72;;
25752;SDS011;13600;50.816;4.416;2023-01-23T04:39:57;115.38;;;42.85;;
25752;SDS011;13600;50.816;4.416;2023-01-23T04:42:23;119.35;;;42.35;;
25752;SDS011;13600;50.816;4.416;2023-01-23T04:44:49;119.00;;;41.92;;
25752;SDS011;13600;50.816;4.416;2023-01-23T04:47:14;116.70;;;42.60;;
25752;SDS011;13600;50.816;4.416;2023-01-23T04:49:40;118.18;;;41.85;;
25752;SDS011;13600;50.816;4.416;2023-01-23T04:52:09;115.93;;;42.10;;
25752;SDS011;13600;50.816;4.416;2023-01-23T04:54:35;122.55;;;42.65;;
25752;SDS011;13600;50.816;4.416;2023-01-23T04:57:00;106.30;;;39.63;;
25752;SDS011;13600;50.816;4.416;2023-01-23T04:59:26;121.65;;;41.22;;
25752;SDS011;13600;50.816;4.416;2023-01-23T05:01:51;120.75;;;42.05;;
25752;SDS011;13600;50.816;4.416;2023-01-23T05:04:17;118.20;;;40.35;;
25752;SDS011;13600;50.816;4.416;2023-01-23T05:06:43;113.03;;;41.45;;
25752;SDS011;13600;50.816;4.416;2023-01-23T05:09:09;114.53;;;41.20;;
25752;SDS011;13600;50.816;4.416;2023-01-23T05:11:34;106.32;;;39.08;;
25752;SDS011;13600;50.816;4.416;2023-01-23T05:14:00;111.63;;;41.72;;
25752;SDS011;13600;50.816;4.416;2023-01-23T05:16:27;114.45;;;41.83;;
25752;SDS011;13600;50.816;4.416;2023-01-23T05:18:52;117.47;;;41.03;;
25752;SDS011;13600;50.816;4.416;2023-01-23T05:21:18;121.22;;;42.60;;
25752;SDS011;13600;50.816;4.416;2023-01-23T05:23:44;122.97;;;40.78;;
25752;SDS011;13600;50.816;4.416;2023-01-23T05:26:09;125.82;;;41.00;;
25752;SDS011;13600;50.816;4.416;2023-01-23T05:28:35;126.95;;;42.47;;
25752;SDS011;13600;50.816;4.416;2023-01-23T05:31:01;121.22;;;42.15;;
25752;SDS011;13600;50.816;4.416;2023-01-23T05:33:26;114.57;;;40.90;;
25752;SDS011;13600;50.816;4.416;2023-01-23T05:35:52;124.95;;;42.33;;
25752;SDS011;13600;50.816;4.416;2023-01-23T05:38:20;117.85;;;40.15;;
25752;SDS011;13600;50.816;4.416;2023-01-23T05:40:49;124.90;;;41.45;;
25752;SDS011;13600;50.816;4.416;2023-01-23T05:43:16;116.65;;;40.88;;
25752;SDS011;13600;50.816;4.416;2023-01-23T05:45:42;131.13;;;43.20;;
25752;SDS011;13600;50.816;4.416;2023-01-23T05:48:08;129.60;;;42.38;;
25752;SDS011;13600;50.816;4.416;2023-01-23T05:50:33;123.50;;;41.45;;
25752;SDS011;13600;50.816;4.416;2023-01-23T05:52:59;109.13;;;38.90;;
25752;SDS011;13600;50.816;4.416;2023-01-23T05:55:25;117.45;;;41.03;;
25752;SDS011;13600;50.816;4.416;2023-01-23T05:57:50;112.65;;;40.20;;
25752;SDS011;13600;50.816;4.416;2023-01-23T06:00:17;124.75;;;42.42;;
25752;SDS011;13600;50.816;4.416;2023-01-23T06:02:43;131.55;;;41.70;;
25752;SDS011;13600;50.816;4.416;2023-01-23T06:05:11;129.30;;;42.17;;
25752;SDS011;13600;50.816;4.416;2023-01-23T06:07:37;123.80;;;42.15;;
25752;SDS011;13600;50.816;4.416;2023-01-23T06:10:03;126.30;;;42.00;;
25752;SDS011;13600;50.816;4.416;2023-01-23T06:12:29;124.55;;;42.53;;
25752;SDS011;13600;50.816;4.416;2023-01-23T06:14:55;122.82;;;42.65;;
25752;SDS011;13600;50.816;4.416;2023-01-23T06:17:21;123.82;;;42.50;;
25752;SDS011;13600;50.816;4.416;2023-01-23T06:19:47;126.03;;;41.63;;
25752;SDS011;13600;50.816;4.416;2023-01-23T06:22:13;116.32;;;41.78;;
25752;SDS011;13600;50.816;4.416;2023-01-23T06:24:38;116.70;;;40.50;;
25752;SDS011;13600;50.816;4.416;2023-01-23T06:27:04;115.45;;;41.63;;
25752;SDS011;13600;50.816;4.416;2023-01-23T06:29:33;111.95;;;41.00;;
25752;SDS011;13600;50.816;4.416;2023-01-23T06:31:59;118.32;;;41.10;;
25752;SDS011;13600;50.816;4.416;2023-01-23T06:34:25;118.38;;;40.45;;
25752;SDS011;13600;50.816;4.416;2023-01-23T06:36:51;114.50;;;39.45;;
25752;SDS011;13600;50.816;4.416;2023-01-23T06:39:16;118.20;;;41.15;;
25752;SDS011;13600;50.816;4.416;2023-01-23T06:41:42;128.38;;;44.65;;
25752;SDS011;13600;50.816;4.416;2023-01-23T06:44:08;120.53;;;41.05;;
25752;SDS011;13600;50.816;4.416;2023-01-23T06:46:34;123.30;;;43.05;;
25752;SDS011;13600;50.816;4.416;2023-01-23T06:49:00;128.88;;;42.92;;
25752;SDS011;13600;50.816;4.416;2023-01-23T06:51:26;126.40;;;41.25;;
25752;SDS011;13600;50.816;4.416;2023-01-23T06:53:51;125.90;;;41.67;;
25752;SDS011;13600;50.816;4.416;2023-01-23T06:56:17;133.57;;;43.50;;
25752;SDS011;13600;50.816;4.416;2023-01-23T06:58:43;131.52;;;44.55;;
25752;SDS011;13600;50.816;4.416;2023-01-23T07:01:11;122.60;;;41.38;;
25752;SDS011;13600;50.816;4.416;2023-01-23T07:03:39;123.55;;;42.53;;
25752;SDS011;13600;50.816;4.416;2023-01-23T07:06:06;114.30;;;42.22;;
25752;SDS011;13600;50.816;4.416;2023-01-23T07:08:32;125.38;;;42.25;;
25752;SDS011;13600;50.816;4.416;2023-01-23T07:10:59;120.63;;;42.65;;
25752;SDS011;13600;50.816;4.416;2023-01-23T07:13:25;117.95;;;42.40;;
25752;SDS011;13600;50.816;4.416;2023-01-23T07:15:51;127.30;;;42.17;;
25752;SDS011;13600;50.816;4.416;2023-01-23T07:18:16;117.05;;;41.05;;
25752;SDS011;13600;50.816;4.416;2023-01-23T07:20:43;120.97;;;42.42;;
25752;SDS011;13600;50.816;4.416;2023-01-23T07:23:09;112.10;;;41.78;;
25752;SDS011;13600;50.816;4.416;2023-01-23T07:25:35;128.27;;;43.30;;
25752;SDS011;13600;50.816;4.416;2023-01-23T07:28:01;126.63;;;43.83;;
25752;SDS011;13600;50.816;4.416;2023-01-23T07:30:26;114.25;;;41.67;;
25752;SDS011;13600;50.816;4.416;2023-01-23T07:32:53;116.90;;;41.72;;
25752;SDS011;13600;50.816;4.416;2023-01-23T07:35:19;110.97;;;41.58;;
25752;SDS011;13600;50.816;4.416;2023-01-23T07:37:45;119.03;;;42.20;;
25752;SDS011;13600;50.816;4.416;2023-01-23T07:40:11;123.55;;;42.17;;
25752;SDS011;13600;50.816;4.416;2023-01-23T07:42:37;115.85;;;41.58;;
25752;SDS011;13600;50.816;4.416;2023-01-23T07:45:04;120.13;;;42.22;;
25752;SDS011;13600;50.816;4.416;2023-01-23T07:47:31;114.50;;;41.35;;
25752;SDS011;13600;50.816;4.416;2023-01-23T07:49:56;118.20;;;42.13;;
25752;SDS011;13600;50.816;4.416;2023-01-23T07:52:22;123.93;;;41.85;;
25752;SDS011;13600;50.816;4.416;2023-01-23T07:54:48;113.25;;;42.28;;
25752;SDS011;13600;50.816;4.416;2023-01-23T07:57:13;117.97;;;41.33;;
25752;SDS011;13600;50.816;4.416;2023-01-23T07:59:39;124.90;;;42.85;;
25752;SDS011;13600;50.816;4.416;2023-01-23T08:02:07;121.72;;;42.67;;
25752;SDS011;13600;50.816;4.416;2023-01-23T08:04:35;115.47;;;43.33;;
25752;SDS011;13600;50.816;4.416;2023-01-23T08:07:01;121.78;;;44.42;;
25752;SDS011;13600;50.816;4.416;2023-01-23T08:09:27;117.82;;;42.50;;
25752;SDS011;13600;50.816;4.416;2023-01-23T08:11:53;118.63;;;43.33;;
25752;SDS011;13600;50.816;4.416;2023-01-23T08:14:19;113.97;;;39.83;;
25752;SDS011;13600;50.816;4.416;2023-01-23T08:16:48;124.78;;;43.83;;
25752;SDS011;13600;50.816;4.416;2023-01-23T08:19:14;120.25;;;41.70;;
25752;SDS011;13600;50.816;4.416;2023-01-23T08:21:41;129.45;;;43.10;;
25752;SDS011;13600;50.816;4.416;2023-01-23T08:24:06;123.20;;;43.33;;
25752;SDS011;13600;50.816;4.416;2023-01-23T08:26:34;121.05;;;43.55;;
25752;SDS011;13600;50.816;4.416;2023-01-23T08:28:59;120.43;;;42.22;;
25752;SDS011;13600;50.816;4.416;2023-01-23T08:31:25;109.57;;;41.50;;
25752;SDS011;13600;50.816;4.416;2023-01-23T08:33:50;121.20;;;43.45;;
25752;SDS011;13600;50.816;4.416;2023-01-23T08:36:16;126.95;;;43.53;;
25752;SDS011;13600;50.816;4.416;2023-01-23T08:38:42;108.90;;;40.28;;
25752;SDS011;13600;50.816;4.416;2023-01-23T08:41:08;107.78;;;40.22;;
25752;SDS011;13600;50.816;4.416;2023-01-23T08:43:36;124.82;;;43.45;;
25752;SDS011;13600;50.816;4.416;2023-01-23T08:46:02;118.57;;;42.35;;
25752;SDS011;13600;50.816;4.416;2023-01-23T08:48:28;115.68;;;42.78;;
25752;SDS011;13600;50.816;4.416;2023-01-23T08:50:59;113.65;;;42.53;;
25752;SDS011;13600;50.816;4.416;2023-01-23T08:53:27;106.33;;;41.57;;
25752;SDS011;13600;50.816;4.416;2023-01-23T08:55:57;107.40;;;42.17;;
25752;SDS011;13600;50.816;4.416;2023-01-23T08:58:32;103.97;;;40.10;;
25752;SDS011;13600;50.816;4.416;2023-01-23T09:01:00;104.50;;;41.65;;
25752;SDS011;13600;50.816;4.416;2023-01-23T09:03:26;94.88;;;40.40;;
25752;SDS011;13600;50.816;4.416;2023-01-23T09:05:52;99.38;;;40.53;;
25752;SDS011;13600;50.816;4.416;2023-01-23T09:08:18;100.18;;;40.13;;
25752;SDS011;13600;50.816;4.416;2023-01-23T09:10:45;111.30;;;40.95;;
25752;SDS011;13600;50.816;4.416;2023-01-23T09:13:11;105.82;;;44.03;;
25752;SDS011;13600;50.816;4.416;2023-01-23T09:15:37;104.10;;;43.03;;
25752;SDS011;13600;50.816;4.416;2023-01-23T09:18:07;100.13;;;42.28;;
25752;SDS011;13600;50.816;4.416;2023-01-23T09:20:34;95.40;;;40.15;;
25752;SDS011;13600;50.816;4.416;2023-01-23T09:23:01;100.07;;;40.72;;
25752;SDS011;13600;50.816;4.416;2023-01-23T09:25:27;103.50;;;43.33;;
25752;SDS011;13600;50.816;4.416;2023-01-23T09:27:55;98.85;;;39.35;;
25752;SDS011;13600;50.816;4.416;2023-01-23T09:30:20;97.25;;;39.45;;
25752;SDS011;13600;50.816;4.416;2023-01-23T09:32:46;100.05;;;40.22;;
25752;SDS011;13600;50.816;4.416;2023-01-23T09:35:12;90.32;;;39.28;;
25752;SDS011;13600;50.816;4.416;2023-01-23T09:37:37;88.28;;;38.47;;
25752;SDS011;13600;50.816;4.416;2023-01-23T09:42:49;93.63;;;38.80;;
25752;SDS011;13600;50.816;4.416;2023-01-23T09:45:18;87.55;;;38.35;;
25752;SDS011;13600;50.816;4.416;2023-01-23T09:50:28;88.47;;;36.72;;
25752;SDS011;13600;50.816;4.416;2023-01-23T09:53:00;93.72;;;39.25;;
25752;SDS011;13600;50.816;4.416;2023-01-23T09:58:29;89.82;;;39.10;;
25752;SDS011;13600;50.816;4.416;2023-01-23T10:01:00;88.78;;;38.88;;
25752;SDS011;13600;50.816;4.416;2023-01-23T10:03:28;93.03;;;37.58;;
25752;SDS011;13600;50.816;4.416;2023-01-23T10:14:35;88.22;;;40.30;;
25752;SDS011;13600;50.816;4.416;2023-01-23T10:17:05;92.53;;;38.33;;
25752;SDS011;13600;50.816;4.416;2023-01-23T10:22:21;87.50;;;40.05;;
25752;SDS011;13600;50.816;4.416;2023-01-23T10:24:57;77.68;;;37.60;;
25752;SDS011;13600;50.816;4.416;2023-01-23T10:27:33;82.30;;;37.95;;
25752;SDS011;13600;50.816;4.416;2023-01-23T10:30:19;86.35;;;38.35;;
25752;SDS011;13600;50.816;4.416;2023-01-23T10:32:51;86.63;;;38.42;;
25752;SDS011;13600;50.816;4.416;2023-01-23T10:40:55;87.07;;;37.95;;
25752;SDS011;13600;50.816;4.416;2023-01-23T10:43:43;81.20;;;37.70;;
25752;SDS011;13600;50.816;4.416;2023-01-23T10:46:12;81.28;;;37.33;;
25752;SDS011;13600;50.816;4.416;2023-01-23T10:48:41;86.22;;;39.88;;
25752;SDS011;13600;50.816;4.416;2023-01-23T10:52:22;83.55;;;36.80;;
25752;SDS011;13600;50.816;4.416;2023-01-23T10:54:15;83.28;;;38.40;;
25752;SDS011;13600;50.816;4.416;2023-01-23T10:56:46;89.15;;;39.85;;
25752;SDS011;13600;50.816;4.416;2023-01-23T10:59:22;86.85;;;39.03;;
25752;SDS011;13600;50.816;4.416;2023-01-23T11:02:34;85.53;;;39.05;;
25752;SDS011;13600;50.816;4.416;2023-01-23T11:04:43;80.70;;;37.45;;
25752;SDS011;13600;50.816;4.416;2023-01-23T11:10:17;80.53;;;38.00;;
25752;SDS011;13600;50.816;4.416;2023-01-23T11:12:48;76.20;;;37.75;;
25752;SDS011;13600;50.816;4.416;2023-01-23T11:15:19;80.30;;;37.65;;
25752;SDS011;13600;50.816;4.416;2023-01-23T11:17:48;78.32;;;36.65;;
25752;SDS011;13600;50.816;4.416;2023-01-23T11:20:27;78.60;;;37.33;;
25752;SDS011;13600;50.816;4.416;2023-01-23T11:27:58;76.95;;;37.33;;
25752;SDS011;13600;50.816;4.416;2023-01-23T11:33:00;77.05;;;36.78;;
25752;SDS011;13600;50.816;4.416;2023-01-23T11:35:46;80.70;;;37.47;;
25752;SDS011;13600;50.816;4.416;2023-01-23T11:38:35;82.05;;;37.38;;
25752;SDS011;13600;50.816;4.416;2023-01-23T11:41:07;77.85;;;35.58;;
25752;SDS011;13600;50.816;4.416;2023-01-23T11:43:36;77.55;;;36.60;;
25752;SDS011;13600;50.816;4.416;2023-01-23T11:57:21;73.18;;;36.05;;
25752;SDS011;13600;50.816;4.416;2023-01-23T12:10:48;77.40;;;35.45;;
25752;SDS011;13600;50.816;4.416;2023-01-23T12:16:16;71.65;;;34.30;;
25752;SDS011;13600;50.816;4.416;2023-01-23T12:19:23;76.90;;;35.13;;
25752;SDS011;13600;50.816;4.416;2023-01-23T12:35:46;68.38;;;33.70;;
25752;SDS011;13600;50.816;4.416;2023-01-23T12:44:10;65.10;;;32.50;;
25752;SDS011;13600;50.816;4.416;2023-01-23T12:46:50;68.15;;;34.38;;
25752;SDS011;13600;50.816;4.416;2023-01-23T12:52:01;71.10;;;32.90;;
25752;SDS011;13600;50.816;4.416;2023-01-23T12:54:44;69.30;;;33.45;;
25752;SDS011;13600;50.816;4.416;2023-01-23T12:57:15;65.00;;;32.60;;
25752;SDS011;13600;50.816;4.416;2023-01-23T13:00:07;68.90;;;32.90;;
25752;SDS011;13600;50.816;4.416;2023-01-23T13:06:39;66.88;;;32.75;;
25752;SDS011;13600;50.816;4.416;2023-01-23T13:16:49;69.72;;;33.25;;
25752;SDS011;13600;50.816;4.416;2023-01-23T13:25:00;80.53;;;32.33;;
25752;SDS011;13600;50.816;4.416;2023-01-23T13:32:51;67.63;;;32.58;;
25752;SDS011;13600;50.816;4.416;2023-01-23T13:50:10;63.40;;;31.25;;
25752;SDS011;13600;50.816;4.416;2023-01-23T13:52:47;63.70;;;31.67;;
25752;SDS011;13600;50.816;4.416;2023-01-23T13:55:42;60.47;;;30.75;;
25752;SDS011;13600;50.816;4.416;2023-01-23T13:58:28;58.22;;;29.13;;
25752;SDS011;13600;50.816;4.416;2023-01-23T14:03:59;54.25;;;27.73;;
25752;SDS011;13600;50.816;4.416;2023-01-23T14:06:49;57.25;;;29.50;;
25752;SDS011;13600;50.816;4.416;2023-01-23T14:09:22;59.80;;;29.60;;
25752;SDS011;13600;50.816;4.416;2023-01-23T14:11:56;61.47;;;31.30;;
25752;SDS011;13600;50.816;4.416;2023-01-23T14:14:21;56.33;;;29.60;;
25752;SDS011;13600;50.816;4.416;2023-01-23T14:17:07;63.00;;;30.55;;
25752;SDS011;13600;50.816;4.416;2023-01-23T14:19:37;58.17;;;29.38;;
25752;SDS011;13600;50.816;4.416;2023-01-23T14:22:30;62.72;;;30.77;;
25752;SDS011;13600;50.816;4.416;2023-01-23T14:24:56;62.67;;;31.23;;
25752;SDS011;13600;50.816;4.416;2023-01-23T14:27:31;62.08;;;30.52;;
25752;SDS011;13600;50.816;4.416;2023-01-23T14:30:13;63.85;;;31.58;;
25752;SDS011;13600;50.816;4.416;2023-01-23T14:32:41;63.42;;;32.42;;
25752;SDS011;13600;50.816;4.416;2023-01-23T14:37:53;68.93;;;33.15;;
25752;SDS011;13600;50.816;4.416;2023-01-23T14:40:22;67.45;;;33.22;;
25752;SDS011;13600;50.816;4.416;2023-01-23T14:42:54;67.45;;;33.05;;
25752;SDS011;13600;50.816;4.416;2023-01-23T14:45:30;68.30;;;33.78;;
25752;SDS011;13600;50.816;4.416;2023-01-23T14:47:56;69.43;;;32.33;;
25752;SDS011;13600;50.816;4.416;2023-01-23T14:50:24;67.03;;;32.83;;
25752;SDS011;13600;50.816;4.416;2023-01-23T14:53:01;65.57;;;30.63;;
25752;SDS011;13600;50.816;4.416;2023-01-23T14:55:30;64.88;;;32.35;;
25752;SDS011;13600;50.816;4.416;2023-01-23T14:57:58;67.55;;;31.42;;
25752;SDS011;13600;50.816;4.416;2023-01-23T15:00:27;67.93;;;33.58;;
25752;SDS011;13600;50.816;4.416;2023-01-23T15:02:54;64.20;;;32.92;;
25752;SDS011;13600;50.816;4.416;2023-01-23T15:05:21;71.80;;;33.80;;
25752;SDS011;13600;50.816;4.416;2023-01-23T15:12:50;69.68;;;33.38;;
25752;SDS011;13600;50.816;4.416;2023-01-23T15:15:33;66.75;;;32.83;;
25752;SDS011;13600;50.816;4.416;2023-01-23T15:18:00;63.92;;;32.90;;
25752;SDS011;13600;50.816;4.416;2023-01-23T15:22:55;66.30;;;32.78;;
25752;SDS011;13600;50.816;4.416;2023-01-23T15:25:30;66.75;;;33.40;;
25752;SDS011;13600;50.816;4.416;2023-01-23T15:27:57;67.53;;;33.22;;
25752;SDS011;13600;50.816;4.416;2023-01-23T15:30:27;67.25;;;33.35;;
25752;SDS011;13600;50.816;4.416;2023-01-23T15:33:02;64.53;;;31.73;;
25752;SDS011;13600;50.816;4.416;2023-01-23T15:35:34;61.50;;;31.15;;
25752;SDS011;13600;50.816;4.416;2023-01-23T15:38:02;56.50;;;29.65;;
25752;SDS011;13600;50.816;4.416;2023-01-23T15:40:30;59.78;;;30.40;;
25752;SDS011;13600;50.816;4.416;2023-01-23T15:43:04;57.25;;;29.30;;
25752;SDS011;13600;50.816;4.416;2023-01-23T15:45:35;48.22;;;26.25;;
25752;SDS011;13600;50.816;4.416;2023-01-23T15:48:00;48.58;;;25.92;;
25752;SDS011;13600;50.816;4.416;2023-01-23T15:50:26;44.78;;;25.35;;
25752;SDS011;13600;50.816;4.416;2023-01-23T15:52:53;49.22;;;25.95;;
25752;SDS011;13600;50.816;4.416;2023-01-23T15:55:20;40.97;;;23.77;;
25752;SDS011;13600;50.816;4.416;2023-01-23T15:57:50;40.58;;;22.52;;
25752;SDS011;13600;50.816;4.416;2023-01-23T16:00:21;47.75;;;24.33;;
25752;SDS011;13600;50.816;4.416;2023-01-23T16:02:52;41.42;;;24.10;;
25752;SDS011;13600;50.816;4.416;2023-01-23T16:05:19;43.67;;;24.77;;
25752;SDS011;13600;50.816;4.416;2023-01-23T16:07:46;44.88;;;23.42;;
25752;SDS011;13600;50.816;4.416;2023-01-23T16:10:20;48.03;;;26.13;;
25752;SDS011;13600;50.816;4.416;2023-01-23T16:12:47;48.28;;;24.90;;
25752;SDS011;13600;50.816;4.416;2023-01-23T16:18:05;47.67;;;27.00;;
25752;SDS011;13600;50.816;4.416;2023-01-23T16:20:33;51.30;;;27.83;;
25752;SDS011;13600;50.816;4.416;2023-01-23T16:23:12;50.85;;;27.92;;
25752;SDS011;13600;50.816;4.416;2023-01-23T16:25:46;53.47;;;29.25;;
25752;SDS011;13600;50.816;4.416;2023-01-23T16:28:16;53.78;;;30.05;;
25752;SDS011;13600;50.816;4.416;2023-01-23T16:30:44;55.75;;;30.00;;
25752;SDS011;13600;50.816;4.416;2023-01-23T16:35:52;55.90;;;30.45;;
25752;SDS011;13600;50.816;4.416;2023-01-23T16:38:24;59.42;;;30.75;;
25752;SDS011;13600;50.816;4.416;2023-01-23T16:40:52;57.60;;;31.30;;
25752;SDS011;13600;50.816;4.416;2023-01-23T16:43:20;58.85;;;31.58;;
25752;SDS011;13600;50.816;4.416;2023-01-23T16:45:46;57.58;;;31.77;;
25752;SDS011;13600;50.816;4.416;2023-01-23T16:48:12;57.20;;;31.35;;
25752;SDS011;13600;50.816;4.416;2023-01-23T16:50:42;57.42;;;31.15;;